sensor_id;sensor_type;location;lat;lon;timestamp;P1;durP1;ratioP1;P2;durP2;ratioP2
19087;SDS011;9676;50.916;13.352;2023-04-07T00:01:56;11.83;;;10.77;;
19087;SDS011;9676;50.916;13.352;2023-04-07T00:04:46;11.73;;;10.67;;
19087;SDS011;9676;50.916;13.352;2023-04-07T00:07:35;11.70;;;10.70;;
19087;SDS011;9676;50.916;13.352;2023-04-07T00:10:42;11.77;;;10.67;;
19087;SDS011;9676;50.916;13.352;2023-04-07T00:13:33;11.70;;;10.70;;
19087;SDS011;9676;50.916;13.352;2023-04-07T00:16:22;12.30;;;11.10;;
19087;SDS011;9676;50.916;13.352;2023-04-07T00:19:12;12.53;;;11.33;;
19087;SDS011;9676;50.916;13.352;2023-04-07T00:22:01;12.30;;;11.10;;
19087;SDS011;9676;50.916;13.352;2023-04-07T00:24:50;12.53;;;11.23;;
19087;SDS011;9676;50.916;13.352;2023-04-07T00:27:40;11.30;;;10.30;;
19087;SDS011;9676;50.916;13.352;2023-04-07T00:30:31;11.57;;;10.57;;
19087;SDS011;9676;50.916;13.352;2023-04-07T00:33:20;12.30;;;11.13;;
19087;SDS011;9676;50.916;13.352;2023-04-07T00:36:10;11.40;;;10.33;;
19087;SDS011;9676;50.916;13.352;2023-04-07T00:39:00;12.27;;;10.90;;
19087;SDS011;9676;50.916;13.352;2023-04-07T00:41:49;11.93;;;10.83;;
19087;SDS011;9676;50.916;13.352;2023-04-07T00:44:38;11.80;;;10.80;;
19087;SDS011;9676;50.916;13.352;2023-04-07T00:47:29;11.90;;;10.90;;
19087;SDS011;9676;50.916;13.352;2023-04-07T00:50:19;11.83;;;10.80;;
19087;SDS011;9676;50.916;13.352;2023-04-07T00:53:09;11.67;;;10.50;;
19087;SDS011;9676;50.916;13.352;2023-04-07T00:55:59;11.63;;;10.63;;
19087;SDS011;9676;50.916;13.352;2023-04-07T00:58:48;11.53;;;10.47;;
19087;SDS011;9676;50.916;13.352;2023-04-07T01:01:39;12.27;;;11.20;;
19087;SDS011;9676;50.916;13.352;2023-04-07T01:04:38;11.47;;;10.47;;
19087;SDS011;9676;50.916;13.352;2023-04-07T01:07:34;11.60;;;10.60;;
19087;SDS011;9676;50.916;13.352;2023-04-07T01:10:40;12.23;;;11.23;;
19087;SDS011;9676;50.916;13.352;2023-04-07T01:13:39;11.40;;;10.40;;
19087;SDS011;9676;50.916;13.352;2023-04-07T01:16:42;11.53;;;10.53;;
19087;SDS011;9676;50.916;13.352;2023-04-07T01:19:39;11.50;;;10.50;;
19087;SDS011;9676;50.916;13.352;2023-04-07T01:22:38;11.73;;;10.67;;
19087;SDS011;9676;50.916;13.352;2023-04-07T01:25:41;11.60;;;10.60;;
19087;SDS011;9676;50.916;13.352;2023-04-07T01:32:21;11.70;;;10.50;;
19087;SDS011;9676;50.916;13.352;2023-04-07T01:35:14;11.50;;;10.40;;
19087;SDS011;9676;50.916;13.352;2023-04-07T01:38:05;11.87;;;10.77;;
19087;SDS011;9676;50.916;13.352;2023-04-07T01:40:56;11.57;;;10.47;;
19087;SDS011;9676;50.916;13.352;2023-04-07T01:43:46;11.83;;;10.73;;
19087;SDS011;9676;50.916;13.352;2023-04-07T01:46:38;11.73;;;10.63;;
19087;SDS011;9676;50.916;13.352;2023-04-07T01:49:27;11.27;;;10.23;;
19087;SDS011;9676;50.916;13.352;2023-04-07T01:52:18;11.60;;;10.60;;
19087;SDS011;9676;50.916;13.352;2023-04-07T01:55:08;11.90;;;10.90;;
19087;SDS011;9676;50.916;13.352;2023-04-07T01:58:07;11.70;;;10.60;;
19087;SDS011;9676;50.916;13.352;2023-04-07T02:01:00;11.73;;;10.73;;
19087;SDS011;9676;50.916;13.352;2023-04-07T02:03:53;12.30;;;11.00;;
19087;SDS011;9676;50.916;13.352;2023-04-07T02:06:51;11.70;;;10.60;;
19087;SDS011;9676;50.916;13.352;2023-04-07T02:09:52;11.93;;;10.83;;
19087;SDS011;9676;50.916;13.352;2023-04-07T02:12:44;11.10;;;10.17;;
19087;SDS011;9676;50.916;13.352;2023-04-07T02:15:38;11.07;;;10.17;;
19087;SDS011;9676;50.916;13.352;2023-04-07T02:18:28;11.80;;;10.60;;
19087;SDS011;9676;50.916;13.352;2023-04-07T02:21:20;11.80;;;10.70;;
19087;SDS011;9676;50.916;13.352;2023-04-07T02:24:10;11.03;;;10.03;;
19087;SDS011;9676;50.916;13.352;2023-04-07T02:27:01;11.43;;;10.33;;
19087;SDS011;9676;50.916;13.352;2023-04-07T02:29:50;11.30;;;10.30;;
19087;SDS011;9676;50.916;13.352;2023-04-07T02:32:42;11.00;;;10.00;;
19087;SDS011;9676;50.916;13.352;2023-04-07T02:35:33;11.23;;;10.23;;
19087;SDS011;9676;50.916;13.352;2023-04-07T02:38:24;11.60;;;10.60;;
19087;SDS011;9676;50.916;13.352;2023-04-07T02:41:14;11.30;;;10.40;;
19087;SDS011;9676;50.916;13.352;2023-04-07T02:44:03;11.53;;;10.53;;
19087;SDS011;9676;50.916;13.352;2023-04-07T02:46:52;11.23;;;10.33;;
19087;SDS011;9676;50.916;13.352;2023-04-07T02:49:43;11.40;;;10.30;;
19087;SDS011;9676;50.916;13.352;2023-04-07T02:52:32;11.33;;;10.33;;
19087;SDS011;9676;50.916;13.352;2023-04-07T02:55:26;11.20;;;10.30;;
19087;SDS011;9676;50.916;13.352;2023-04-07T02:58:16;11.20;;;10.20;;
19087;SDS011;9676;50.916;13.352;2023-04-07T03:01:05;11.27;;;10.27;;
19087;SDS011;9676;50.916;13.352;2023-04-07T03:03:55;11.20;;;10.30;;
19087;SDS011;9676;50.916;13.352;2023-04-07T03:06:45;10.70;;;9.80;;
19087;SDS011;9676;50.916;13.352;2023-04-07T03:09:35;10.90;;;9.97;;
19087;SDS011;9676;50.916;13.352;2023-04-07T03:12:26;10.77;;;9.87;;
19087;SDS011;9676;50.916;13.352;2023-04-07T03:15:16;11.07;;;10.13;;
19087;SDS011;9676;50.916;13.352;2023-04-07T03:18:07;11.20;;;10.20;;
19087;SDS011;9676;50.916;13.352;2023-04-07T03:20:58;11.13;;;9.93;;
19087;SDS011;9676;50.916;13.352;2023-04-07T03:23:48;11.17;;;10.17;;
19087;SDS011;9676;50.916;13.352;2023-04-07T03:26:38;10.97;;;10.07;;
19087;SDS011;9676;50.916;13.352;2023-04-07T03:29:38;10.60;;;9.67;;
19087;SDS011;9676;50.916;13.352;2023-04-07T03:32:30;10.80;;;9.80;;
19087;SDS011;9676;50.916;13.352;2023-04-07T03:35:20;11.07;;;10.07;;
19087;SDS011;9676;50.916;13.352;2023-04-07T03:38:09;11.70;;;10.60;;
19087;SDS011;9676;50.916;13.352;2023-04-07T03:40:59;10.67;;;9.77;;
19087;SDS011;9676;50.916;13.352;2023-04-07T03:43:48;11.07;;;10.17;;
19087;SDS011;9676;50.916;13.352;2023-04-07T03:46:40;10.83;;;9.83;;
19087;SDS011;9676;50.916;13.352;2023-04-07T03:49:29;11.17;;;10.17;;
19087;SDS011;9676;50.916;13.352;2023-04-07T03:52:22;11.53;;;10.53;;
19087;SDS011;9676;50.916;13.352;2023-04-07T03:55:17;11.10;;;10.20;;
19087;SDS011;9676;50.916;13.352;2023-04-07T03:58:08;11.40;;;10.30;;
19087;SDS011;9676;50.916;13.352;2023-04-07T04:00:57;11.27;;;10.27;;
19087;SDS011;9676;50.916;13.352;2023-04-07T04:03:49;12.23;;;10.40;;
19087;SDS011;9676;50.916;13.352;2023-04-07T04:06:57;11.90;;;10.80;;
19087;SDS011;9676;50.916;13.352;2023-04-07T04:10:07;11.50;;;10.50;;
19087;SDS011;9676;50.916;13.352;2023-04-07T04:13:02;11.40;;;10.40;;
19087;SDS011;9676;50.916;13.352;2023-04-07T04:15:53;11.00;;;10.10;;
19087;SDS011;9676;50.916;13.352;2023-04-07T04:18:43;11.00;;;10.00;;
19087;SDS011;9676;50.916;13.352;2023-04-07T04:21:35;11.40;;;10.40;;
19087;SDS011;9676;50.916;13.352;2023-04-07T04:24:25;10.90;;;10.00;;
19087;SDS011;9676;50.916;13.352;2023-04-07T04:27:19;11.60;;;10.60;;
19087;SDS011;9676;50.916;13.352;2023-04-07T04:30:13;11.60;;;10.60;;
19087;SDS011;9676;50.916;13.352;2023-04-07T04:33:09;11.23;;;10.27;;
19087;SDS011;9676;50.916;13.352;2023-04-07T04:36:18;10.80;;;9.90;;
19087;SDS011;9676;50.916;13.352;2023-04-07T04:39:10;11.43;;;10.43;;
19087;SDS011;9676;50.916;13.352;2023-04-07T04:41:59;11.63;;;10.53;;
19087;SDS011;9676;50.916;13.352;2023-04-07T04:44:54;11.30;;;10.20;;
19087;SDS011;9676;50.916;13.352;2023-04-07T04:47:44;11.47;;;10.43;;
19087;SDS011;9676;50.916;13.352;2023-04-07T04:50:33;10.80;;;9.80;;
19087;SDS011;9676;50.916;13.352;2023-04-07T04:53:28;10.90;;;10.00;;
19087;SDS011;9676;50.916;13.352;2023-04-07T04:56:21;11.13;;;10.23;;
19087;SDS011;9676;50.916;13.352;2023-04-07T04:59:13;11.53;;;10.43;;
19087;SDS011;9676;50.916;13.352;2023-04-07T05:02:16;11.20;;;10.10;;
19087;SDS011;9676;50.916;13.352;2023-04-07T05:05:06;11.63;;;10.53;;
19087;SDS011;9676;50.916;13.352;2023-04-07T05:07:56;11.73;;;10.53;;
19087;SDS011;9676;50.916;13.352;2023-04-07T05:10:51;11.83;;;10.67;;
19087;SDS011;9676;50.916;13.352;2023-04-07T05:13:46;11.53;;;10.43;;
19087;SDS011;9676;50.916;13.352;2023-04-07T05:16:35;11.07;;;10.17;;
19087;SDS011;9676;50.916;13.352;2023-04-07T05:19:26;11.87;;;10.70;;
19087;SDS011;9676;50.916;13.352;2023-04-07T05:22:22;11.40;;;10.30;;
19087;SDS011;9676;50.916;13.352;2023-04-07T05:25:12;11.10;;;10.10;;
19087;SDS011;9676;50.916;13.352;2023-04-07T05:28:04;11.33;;;10.23;;
19087;SDS011;9676;50.916;13.352;2023-04-07T05:30:55;12.00;;;10.70;;
19087;SDS011;9676;50.916;13.352;2023-04-07T05:33:49;11.33;;;10.33;;
19087;SDS011;9676;50.916;13.352;2023-04-07T05:36:42;11.37;;;10.33;;
19087;SDS011;9676;50.916;13.352;2023-04-07T05:39:31;11.47;;;10.47;;
19087;SDS011;9676;50.916;13.352;2023-04-07T05:42:23;11.67;;;10.57;;
19087;SDS011;9676;50.916;13.352;2023-04-07T05:45:15;11.77;;;10.63;;
19087;SDS011;9676;50.916;13.352;2023-04-07T05:48:09;11.57;;;10.47;;
19087;SDS011;9676;50.916;13.352;2023-04-07T05:51:03;11.67;;;10.60;;
19087;SDS011;9676;50.916;13.352;2023-04-07T05:53:53;11.77;;;10.67;;
19087;SDS011;9676;50.916;13.352;2023-04-07T05:56:44;11.73;;;10.63;;
19087;SDS011;9676;50.916;13.352;2023-04-07T05:59:34;11.70;;;10.60;;
19087;SDS011;9676;50.916;13.352;2023-04-07T06:02:24;12.10;;;10.90;;
19087;SDS011;9676;50.916;13.352;2023-04-07T06:05:15;11.93;;;10.70;;
19087;SDS011;9676;50.916;13.352;2023-04-07T06:08:06;11.67;;;10.57;;
19087;SDS011;9676;50.916;13.352;2023-04-07T06:10:55;11.30;;;10.30;;
19087;SDS011;9676;50.916;13.352;2023-04-07T06:13:46;11.57;;;10.47;;
19087;SDS011;9676;50.916;13.352;2023-04-07T06:16:35;12.10;;;10.83;;
19087;SDS011;9676;50.916;13.352;2023-04-07T06:19:25;11.00;;;10.00;;
19087;SDS011;9676;50.916;13.352;2023-04-07T06:22:15;12.00;;;10.90;;
19087;SDS011;9676;50.916;13.352;2023-04-07T06:25:05;11.43;;;10.33;;
19087;SDS011;9676;50.916;13.352;2023-04-07T06:27:55;11.97;;;10.87;;
19087;SDS011;9676;50.916;13.352;2023-04-07T06:30:45;11.43;;;10.33;;
19087;SDS011;9676;50.916;13.352;2023-04-07T06:33:35;11.23;;;10.13;;
19087;SDS011;9676;50.916;13.352;2023-04-07T06:36:25;11.07;;;10.07;;
19087;SDS011;9676;50.916;13.352;2023-04-07T06:39:16;11.40;;;10.20;;
19087;SDS011;9676;50.916;13.352;2023-04-07T06:42:06;11.80;;;10.60;;
19087;SDS011;9676;50.916;13.352;2023-04-07T06:44:59;11.27;;;10.23;;
19087;SDS011;9676;50.916;13.352;2023-04-07T06:47:48;11.40;;;10.30;;
19087;SDS011;9676;50.916;13.352;2023-04-07T06:50:38;12.30;;;11.00;;
19087;SDS011;9676;50.916;13.352;2023-04-07T06:53:28;12.07;;;10.87;;
19087;SDS011;9676;50.916;13.352;2023-04-07T06:56:18;12.40;;;11.20;;
19087;SDS011;9676;50.916;13.352;2023-04-07T06:59:08;11.87;;;10.67;;
19087;SDS011;9676;50.916;13.352;2023-04-07T07:01:57;11.67;;;10.47;;
19087;SDS011;9676;50.916;13.352;2023-04-07T07:04:47;11.10;;;10.10;;
19087;SDS011;9676;50.916;13.352;2023-04-07T07:07:37;11.67;;;10.57;;
19087;SDS011;9676;50.916;13.352;2023-04-07T07:10:26;11.87;;;10.70;;
19087;SDS011;9676;50.916;13.352;2023-04-07T07:13:18;12.20;;;11.00;;
19087;SDS011;9676;50.916;13.352;2023-04-07T07:16:10;12.23;;;10.93;;
19087;SDS011;9676;50.916;13.352;2023-04-07T07:19:00;14.37;;;11.40;;
19087;SDS011;9676;50.916;13.352;2023-04-07T07:21:49;11.73;;;10.53;;
19087;SDS011;9676;50.916;13.352;2023-04-07T07:24:39;11.50;;;10.40;;
19087;SDS011;9676;50.916;13.352;2023-04-07T07:27:29;11.93;;;10.73;;
19087;SDS011;9676;50.916;13.352;2023-04-07T07:30:20;11.33;;;10.23;;
19087;SDS011;9676;50.916;13.352;2023-04-07T07:33:11;11.90;;;10.60;;
19087;SDS011;9676;50.916;13.352;2023-04-07T07:36:00;11.27;;;10.17;;
19087;SDS011;9676;50.916;13.352;2023-04-07T07:38:50;11.57;;;10.37;;
19087;SDS011;9676;50.916;13.352;2023-04-07T07:41:39;12.17;;;10.90;;
19087;SDS011;9676;50.916;13.352;2023-04-07T07:44:29;11.73;;;10.53;;
19087;SDS011;9676;50.916;13.352;2023-04-07T07:47:20;11.87;;;10.67;;
19087;SDS011;9676;50.916;13.352;2023-04-07T07:50:09;12.63;;;11.33;;
19087;SDS011;9676;50.916;13.352;2023-04-07T07:52:59;11.30;;;10.20;;
19087;SDS011;9676;50.916;13.352;2023-04-07T07:55:48;11.70;;;10.50;;
19087;SDS011;9676;50.916;13.352;2023-04-07T07:58:38;11.77;;;10.57;;
19087;SDS011;9676;50.916;13.352;2023-04-07T08:01:27;11.20;;;10.10;;
19087;SDS011;9676;50.916;13.352;2023-04-07T08:04:18;11.53;;;10.33;;
19087;SDS011;9676;50.916;13.352;2023-04-07T08:07:09;12.07;;;10.57;;
19087;SDS011;9676;50.916;13.352;2023-04-07T08:09:59;12.10;;;10.07;;
19087;SDS011;9676;50.916;13.352;2023-04-07T08:12:48;11.53;;;10.43;;
19087;SDS011;9676;50.916;13.352;2023-04-07T08:15:38;11.63;;;10.43;;
19087;SDS011;9676;50.916;13.352;2023-04-07T08:18:27;11.40;;;10.30;;
19087;SDS011;9676;50.916;13.352;2023-04-07T08:21:18;11.20;;;10.10;;
19087;SDS011;9676;50.916;13.352;2023-04-07T08:24:08;11.43;;;10.23;;
19087;SDS011;9676;50.916;13.352;2023-04-07T08:26:58;11.03;;;9.93;;
19087;SDS011;9676;50.916;13.352;2023-04-07T08:29:50;11.33;;;10.20;;
19087;SDS011;9676;50.916;13.352;2023-04-07T08:32:47;12.23;;;9.87;;
19087;SDS011;9676;50.916;13.352;2023-04-07T08:35:36;11.20;;;10.10;;
19087;SDS011;9676;50.916;13.352;2023-04-07T08:38:27;11.37;;;10.27;;
19087;SDS011;9676;50.916;13.352;2023-04-07T08:41:19;11.60;;;10.40;;
19087;SDS011;9676;50.916;13.352;2023-04-07T08:44:23;11.27;;;10.17;;
19087;SDS011;9676;50.916;13.352;2023-04-07T08:47:15;11.73;;;10.37;;
19087;SDS011;9676;50.916;13.352;2023-04-07T08:50:06;11.33;;;10.13;;
19087;SDS011;9676;50.916;13.352;2023-04-07T08:52:59;11.60;;;10.00;;
19087;SDS011;9676;50.916;13.352;2023-04-07T08:55:55;11.00;;;9.90;;
19087;SDS011;9676;50.916;13.352;2023-04-07T08:58:45;11.40;;;10.30;;
19087;SDS011;9676;50.916;13.352;2023-04-07T09:01:37;12.10;;;10.63;;
19087;SDS011;9676;50.916;13.352;2023-04-07T09:04:28;12.23;;;10.93;;
19087;SDS011;9676;50.916;13.352;2023-04-07T09:07:17;11.57;;;10.47;;
19087;SDS011;9676;50.916;13.352;2023-04-07T09:10:07;11.13;;;10.03;;
19087;SDS011;9676;50.916;13.352;2023-04-07T09:12:58;11.63;;;10.43;;
19087;SDS011;9676;50.916;13.352;2023-04-07T09:15:48;12.27;;;10.63;;
19087;SDS011;9676;50.916;13.352;2023-04-07T09:18:37;14.93;;;11.20;;
19087;SDS011;9676;50.916;13.352;2023-04-07T09:21:27;11.93;;;10.73;;
19087;SDS011;9676;50.916;13.352;2023-04-07T09:24:36;12.00;;;10.80;;
19087;SDS011;9676;50.916;13.352;2023-04-07T09:27:25;12.67;;;11.47;;
19087;SDS011;9676;50.916;13.352;2023-04-07T09:30:16;13.40;;;12.10;;
19087;SDS011;9676;50.916;13.352;2023-04-07T09:33:05;13.80;;;11.53;;
19087;SDS011;9676;50.916;13.352;2023-04-07T09:35:55;12.77;;;11.50;;
19087;SDS011;9676;50.916;13.352;2023-04-07T09:38:44;12.73;;;11.40;;
19087;SDS011;9676;50.916;13.352;2023-04-07T09:41:34;12.00;;;10.80;;
19087;SDS011;9676;50.916;13.352;2023-04-07T09:44:24;12.07;;;10.93;;
19087;SDS011;9676;50.916;13.352;2023-04-07T09:47:15;11.90;;;10.70;;
19087;SDS011;9676;50.916;13.352;2023-04-07T09:50:05;12.83;;;11.50;;
19087;SDS011;9676;50.916;13.352;2023-04-07T09:52:55;12.07;;;10.80;;
19087;SDS011;9676;50.916;13.352;2023-04-07T09:55:44;12.30;;;11.10;;
19087;SDS011;9676;50.916;13.352;2023-04-07T09:58:34;11.90;;;10.70;;
19087;SDS011;9676;50.916;13.352;2023-04-07T10:01:27;12.00;;;10.80;;
19087;SDS011;9676;50.916;13.352;2023-04-07T10:04:18;12.43;;;11.13;;
19087;SDS011;9676;50.916;13.352;2023-04-07T10:07:08;13.17;;;11.60;;
19087;SDS011;9676;50.916;13.352;2023-04-07T10:09:58;12.83;;;11.53;;
19087;SDS011;9676;50.916;13.352;2023-04-07T10:12:47;11.70;;;10.50;;
19087;SDS011;9676;50.916;13.352;2023-04-07T10:15:41;12.30;;;11.00;;
19087;SDS011;9676;50.916;13.352;2023-04-07T10:18:31;12.30;;;11.10;;
19087;SDS011;9676;50.916;13.352;2023-04-07T10:21:24;12.17;;;10.93;;
19087;SDS011;9676;50.916;13.352;2023-04-07T10:24:18;12.20;;;10.90;;
19087;SDS011;9676;50.916;13.352;2023-04-07T10:27:24;11.97;;;10.80;;
19087;SDS011;9676;50.916;13.352;2023-04-07T10:30:22;12.50;;;11.30;;
19087;SDS011;9676;50.916;13.352;2023-04-07T10:33:14;13.27;;;11.87;;
19087;SDS011;9676;50.916;13.352;2023-04-07T10:36:05;13.97;;;11.20;;
19087;SDS011;9676;50.916;13.352;2023-04-07T10:45:52;14.80;;;12.50;;
19087;SDS011;9676;50.916;13.352;2023-04-07T10:55:28;12.70;;;11.50;;
19087;SDS011;9676;50.916;13.352;2023-04-07T10:58:24;13.40;;;12.00;;
19087;SDS011;9676;50.916;13.352;2023-04-07T11:01:18;14.70;;;11.37;;
19087;SDS011;9676;50.916;13.352;2023-04-07T11:04:08;13.30;;;11.90;;
19087;SDS011;9676;50.916;13.352;2023-04-07T11:06:57;13.67;;;12.27;;
19087;SDS011;9676;50.916;13.352;2023-04-07T11:09:47;14.73;;;12.43;;
19087;SDS011;9676;50.916;13.352;2023-04-07T11:12:38;13.23;;;11.93;;
19087;SDS011;9676;50.916;13.352;2023-04-07T11:15:27;13.47;;;11.70;;
19087;SDS011;9676;50.916;13.352;2023-04-07T11:18:17;14.13;;;12.63;;
19087;SDS011;9676;50.916;13.352;2023-04-07T11:21:10;13.77;;;12.37;;
19087;SDS011;9676;50.916;13.352;2023-04-07T11:23:59;13.80;;;12.30;;
19087;SDS011;9676;50.916;13.352;2023-04-07T11:26:48;12.80;;;11.50;;
19087;SDS011;9676;50.916;13.352;2023-04-07T11:29:40;12.83;;;11.57;;
19087;SDS011;9676;50.916;13.352;2023-04-07T11:32:30;13.20;;;11.90;;
19087;SDS011;9676;50.916;13.352;2023-04-07T11:35:19;13.63;;;12.23;;
19087;SDS011;9676;50.916;13.352;2023-04-07T11:38:09;13.73;;;12.23;;
19087;SDS011;9676;50.916;13.352;2023-04-07T11:41:08;12.77;;;11.53;;
19087;SDS011;9676;50.916;13.352;2023-04-07T11:44:05;12.60;;;11.40;;
19087;SDS011;9676;50.916;13.352;2023-04-07T11:46:58;12.70;;;11.50;;
19087;SDS011;9676;50.916;13.352;2023-04-07T11:49:50;13.60;;;12.30;;
19087;SDS011;9676;50.916;13.352;2023-04-07T11:52:40;13.70;;;12.30;;
19087;SDS011;9676;50.916;13.352;2023-04-07T11:55:30;12.63;;;11.43;;
19087;SDS011;9676;50.916;13.352;2023-04-07T11:58:19;12.80;;;11.50;;
19087;SDS011;9676;50.916;13.352;2023-04-07T12:01:09;13.17;;;11.87;;
19087;SDS011;9676;50.916;13.352;2023-04-07T12:04:02;13.03;;;11.73;;
19087;SDS011;9676;50.916;13.352;2023-04-07T12:06:52;14.20;;;11.70;;
19087;SDS011;9676;50.916;13.352;2023-04-07T12:09:41;13.00;;;11.70;;
19087;SDS011;9676;50.916;13.352;2023-04-07T12:12:30;12.87;;;11.60;;
19087;SDS011;9676;50.916;13.352;2023-04-07T12:15:20;13.50;;;11.70;;
19087;SDS011;9676;50.916;13.352;2023-04-07T12:18:14;13.47;;;12.17;;
19087;SDS011;9676;50.916;13.352;2023-04-07T12:21:06;16.90;;;12.43;;
19087;SDS011;9676;50.916;13.352;2023-04-07T12:23:56;13.50;;;12.10;;
19087;SDS011;9676;50.916;13.352;2023-04-07T12:26:45;14.00;;;12.60;;
19087;SDS011;9676;50.916;13.352;2023-04-07T12:29:35;12.57;;;11.37;;
19087;SDS011;9676;50.916;13.352;2023-04-07T12:32:25;13.50;;;12.10;;
19087;SDS011;9676;50.916;13.352;2023-04-07T12:35:15;12.80;;;11.23;;
19087;SDS011;9676;50.916;13.352;2023-04-07T12:38:06;12.30;;;11.10;;
19087;SDS011;9676;50.916;13.352;2023-04-07T12:40:55;13.50;;;12.10;;
19087;SDS011;9676;50.916;13.352;2023-04-07T12:43:50;13.40;;;12.00;;
19087;SDS011;9676;50.916;13.352;2023-04-07T12:46:39;12.50;;;11.30;;
19087;SDS011;9676;50.916;13.352;2023-04-07T12:49:29;13.40;;;12.10;;
19087;SDS011;9676;50.916;13.352;2023-04-07T12:52:18;12.57;;;11.33;;
19087;SDS011;9676;50.916;13.352;2023-04-07T12:55:10;13.30;;;12.00;;
19087;SDS011;9676;50.916;13.352;2023-04-07T12:58:00;15.50;;;11.60;;
19087;SDS011;9676;50.916;13.352;2023-04-07T13:00:51;13.33;;;11.53;;
19087;SDS011;9676;50.916;13.352;2023-04-07T13:03:40;12.40;;;11.20;;
19087;SDS011;9676;50.916;13.352;2023-04-07T13:06:30;12.50;;;11.30;;
19087;SDS011;9676;50.916;13.352;2023-04-07T13:09:20;12.17;;;11.00;;
19087;SDS011;9676;50.916;13.352;2023-04-07T13:12:11;11.70;;;10.60;;
19087;SDS011;9676;50.916;13.352;2023-04-07T13:15:01;12.67;;;11.47;;
19087;SDS011;9676;50.916;13.352;2023-04-07T13:17:51;12.63;;;11.37;;
19087;SDS011;9676;50.916;13.352;2023-04-07T13:20:41;11.73;;;10.63;;
19087;SDS011;9676;50.916;13.352;2023-04-07T13:23:50;11.93;;;10.80;;
19087;SDS011;9676;50.916;13.352;2023-04-07T13:26:40;12.10;;;10.80;;
19087;SDS011;9676;50.916;13.352;2023-04-07T13:29:30;11.93;;;10.73;;
19087;SDS011;9676;50.916;13.352;2023-04-07T13:32:20;11.83;;;10.73;;
19087;SDS011;9676;50.916;13.352;2023-04-07T13:35:10;12.23;;;11.03;;
19087;SDS011;9676;50.916;13.352;2023-04-07T13:37:59;12.70;;;11.40;;
19087;SDS011;9676;50.916;13.352;2023-04-07T13:40:49;13.13;;;11.73;;
19087;SDS011;9676;50.916;13.352;2023-04-07T13:43:38;12.47;;;11.27;;
19087;SDS011;9676;50.916;13.352;2023-04-07T13:46:29;12.33;;;11.13;;
19087;SDS011;9676;50.916;13.352;2023-04-07T13:49:18;12.60;;;11.30;;
19087;SDS011;9676;50.916;13.352;2023-04-07T13:52:08;12.00;;;10.80;;
19087;SDS011;9676;50.916;13.352;2023-04-07T13:54:58;12.83;;;11.53;;
19087;SDS011;9676;50.916;13.352;2023-04-07T13:57:47;12.57;;;10.97;;
19087;SDS011;9676;50.916;13.352;2023-04-07T14:00:37;11.70;;;10.60;;
19087;SDS011;9676;50.916;13.352;2023-04-07T14:03:28;13.63;;;11.00;;
19087;SDS011;9676;50.916;13.352;2023-04-07T14:06:18;12.10;;;10.87;;
19087;SDS011;9676;50.916;13.352;2023-04-07T14:09:09;12.17;;;10.97;;
19087;SDS011;9676;50.916;13.352;2023-04-07T14:11:58;12.17;;;10.97;;
19087;SDS011;9676;50.916;13.352;2023-04-07T14:14:48;11.97;;;10.80;;
19087;SDS011;9676;50.916;13.352;2023-04-07T14:17:38;11.33;;;10.27;;
19087;SDS011;9676;50.916;13.352;2023-04-07T14:20:29;11.83;;;10.73;;
19087;SDS011;9676;50.916;13.352;2023-04-07T14:23:18;12.17;;;11.00;;
19087;SDS011;9676;50.916;13.352;2023-04-07T14:26:22;11.77;;;10.67;;
19087;SDS011;9676;50.916;13.352;2023-04-07T14:29:13;11.70;;;10.60;;
19087;SDS011;9676;50.916;13.352;2023-04-07T14:32:03;12.80;;;11.50;;
19087;SDS011;9676;50.916;13.352;2023-04-07T14:34:52;12.20;;;10.90;;
19087;SDS011;9676;50.916;13.352;2023-04-07T14:37:43;12.70;;;11.50;;
19087;SDS011;9676;50.916;13.352;2023-04-07T14:40:33;12.07;;;10.90;;
19087;SDS011;9676;50.916;13.352;2023-04-07T14:43:22;12.00;;;10.90;;
19087;SDS011;9676;50.916;13.352;2023-04-07T14:46:12;12.17;;;11.03;;
19087;SDS011;9676;50.916;13.352;2023-04-07T14:49:02;11.70;;;10.50;;
19087;SDS011;9676;50.916;13.352;2023-04-07T14:51:51;12.30;;;11.10;;
19087;SDS011;9676;50.916;13.352;2023-04-07T14:54:42;11.30;;;10.30;;
19087;SDS011;9676;50.916;13.352;2023-04-07T14:57:31;11.50;;;10.47;;
19087;SDS011;9676;50.916;13.352;2023-04-07T15:00:21;11.50;;;10.40;;
19087;SDS011;9676;50.916;13.352;2023-04-07T15:03:11;11.63;;;10.57;;
19087;SDS011;9676;50.916;13.352;2023-04-07T15:06:04;12.00;;;10.90;;
19087;SDS011;9676;50.916;13.352;2023-04-07T15:08:56;12.07;;;10.97;;
19087;SDS011;9676;50.916;13.352;2023-04-07T15:11:46;12.50;;;11.30;;
19087;SDS011;9676;50.916;13.352;2023-04-07T15:14:36;12.13;;;11.03;;
19087;SDS011;9676;50.916;13.352;2023-04-07T15:17:25;12.20;;;11.00;;
19087;SDS011;9676;50.916;13.352;2023-04-07T15:20:30;12.17;;;10.97;;
19087;SDS011;9676;50.916;13.352;2023-04-07T15:23:19;12.47;;;11.27;;
19087;SDS011;9676;50.916;13.352;2023-04-07T15:26:09;12.13;;;11.03;;
19087;SDS011;9676;50.916;13.352;2023-04-07T15:29:00;11.80;;;10.70;;
19087;SDS011;9676;50.916;13.352;2023-04-07T15:31:49;12.37;;;11.17;;
19087;SDS011;9676;50.916;13.352;2023-04-07T15:34:38;11.90;;;10.70;;
19087;SDS011;9676;50.916;13.352;2023-04-07T15:37:28;12.70;;;11.40;;
19087;SDS011;9676;50.916;13.352;2023-04-07T15:40:17;16.90;;;11.30;;
19087;SDS011;9676;50.916;13.352;2023-04-07T15:43:07;11.50;;;10.50;;
19087;SDS011;9676;50.916;13.352;2023-04-07T15:45:58;12.13;;;10.93;;
19087;SDS011;9676;50.916;13.352;2023-04-07T15:48:48;12.50;;;11.30;;
19087;SDS011;9676;50.916;13.352;2023-04-07T15:51:38;11.73;;;10.63;;
19087;SDS011;9676;50.916;13.352;2023-04-07T15:54:27;13.07;;;11.77;;
19087;SDS011;9676;50.916;13.352;2023-04-07T15:57:17;12.13;;;11.00;;
19087;SDS011;9676;50.916;13.352;2023-04-07T16:00:08;12.50;;;11.30;;
19087;SDS011;9676;50.916;13.352;2023-04-07T16:03:00;13.03;;;11.73;;
19087;SDS011;9676;50.916;13.352;2023-04-07T16:05:50;12.60;;;11.30;;
19087;SDS011;9676;50.916;13.352;2023-04-07T16:08:39;12.93;;;11.63;;
19087;SDS011;9676;50.916;13.352;2023-04-07T16:11:29;12.30;;;11.03;;
19087;SDS011;9676;50.916;13.352;2023-04-07T16:14:18;12.73;;;11.43;;
19087;SDS011;9676;50.916;13.352;2023-04-07T16:17:07;12.53;;;11.30;;
19087;SDS011;9676;50.916;13.352;2023-04-07T16:19:58;12.93;;;11.53;;
19087;SDS011;9676;50.916;13.352;2023-04-07T16:22:48;12.40;;;11.10;;
19087;SDS011;9676;50.916;13.352;2023-04-07T16:25:37;11.80;;;10.60;;
19087;SDS011;9676;50.916;13.352;2023-04-07T16:28:26;12.60;;;11.37;;
19087;SDS011;9676;50.916;13.352;2023-04-07T16:31:16;12.97;;;11.67;;
19087;SDS011;9676;50.916;13.352;2023-04-07T16:34:05;12.40;;;11.20;;
19087;SDS011;9676;50.916;13.352;2023-04-07T16:36:56;12.77;;;11.57;;
19087;SDS011;9676;50.916;13.352;2023-04-07T16:39:45;12.80;;;11.50;;
19087;SDS011;9676;50.916;13.352;2023-04-07T16:42:35;12.40;;;11.13;;
19087;SDS011;9676;50.916;13.352;2023-04-07T16:45:24;12.97;;;11.67;;
19087;SDS011;9676;50.916;13.352;2023-04-07T16:48:14;13.83;;;12.40;;
19087;SDS011;9676;50.916;13.352;2023-04-07T16:51:03;19.10;;;12.80;;
19087;SDS011;9676;50.916;13.352;2023-04-07T16:53:54;12.93;;;11.63;;
19087;SDS011;9676;50.916;13.352;2023-04-07T16:56:44;12.20;;;11.10;;
19087;SDS011;9676;50.916;13.352;2023-04-07T16:59:33;13.17;;;11.83;;